Terminal Aerodrome Forecast
Issued by NWS Jackson, MS

Home | Current Version | Previous Version | Text Only | Print | Product List | Glossary On
Versions: 1 2 3 4 5 6 7 8 9 10 11 12
000
FTUS44 KJAN 312325
TAFJAN
TAF
KJAN 312325Z 0100/0124 12003KT P6SM FEW080 SCT250
     FM011400 01005KT P6SM FEW070 SCT150 BKN250=

USA.gov is the U.S. government's official web portal to all federal, state and local government web resources and services.